Terminal Aerodrome Forecast
Issued by NWS Memphis, TN

Home | Current Version | Previous Version | Text Only | Print | Product List | Glossary On
Versions: 1 2 3 4 5 6 7 8 9 10 11 12 13 14 15 16
000
FTUS44 KMEG 300524
TAFJBR
TAF
KJBR 300524Z 3006/3106 32003KT P6SM FEW050 BKN250
      TEMPO 3010/3013 3SM BR FEW001
     FM301600 07004KT P6SM SCT045 SCT250
     FM302200 12005KT P6SM VCTS SCT050CB
     FM310100 00000KT P6SM SCT150=

USA.gov is the U.S. government's official web portal to all federal, state and local government web resources and services.